createdAt,value
2018-05-31T00:01:26.970Z,96.90
2018-05-31T00:05:38.615Z,96.60
2018-05-31T00:07:39.588Z,96.60
2018-05-31T00:09:40.562Z,97.10
2018-05-31T00:11:41.545Z,96.60
2018-05-31T00:13:43.659Z,94.20
2018-05-31T00:15:44.762Z,93.80
2018-05-31T00:17:51.897Z,93.80
2018-05-31T00:19:59.480Z,93.90
2018-05-31T00:22:05.784Z,93.40
2018-05-31T00:24:08.985Z,94.10
2018-05-31T00:26:09.978Z,94.00
2018-05-31T00:28:10.986Z,94.30
2018-05-31T00:30:11.940Z,94.10
2018-05-31T00:32:16.463Z,94.10
2018-05-31T00:34:17.441Z,92.70
2018-05-31T00:36:18.409Z,92.30
2018-05-31T00:38:19.373Z,92.80
2018-05-31T00:40:21.667Z,94.00
2018-05-31T00:42:23.899Z,92.50
2018-05-31T00:44:24.944Z,92.50
2018-05-31T00:46:28.362Z,92.00
2018-05-31T00:48:29.990Z,92.60
2018-05-31T00:50:31.013Z,93.20
2018-05-31T00:52:32.006Z,92.90
2018-05-31T00:54:36.497Z,93.50
2018-05-31T00:56:37.543Z,93.30
2018-05-31T00:58:38.509Z,92.80
2018-05-31T01:00:39.486Z,93.50
2018-05-31T01:02:41.180Z,92.00
2018-05-31T01:04:43.960Z,92.00
2018-05-31T01:06:45.744Z,92.00
2018-05-31T01:08:46.786Z,91.90
2018-05-31T01:10:47.754Z,91.00
2018-05-31T01:12:48.713Z,93.20
2018-05-31T01:14:49.685Z,92.90
2018-05-31T01:16:50.641Z,94.10
2018-05-31T01:18:52.349Z,93.90
2018-05-31T01:20:53.290Z,93.90
2018-05-31T01:22:56.908Z,92.50
2018-05-31T01:24:59.996Z,93.90
2018-05-31T01:27:01.018Z,93.90
2018-05-31T01:29:01.991Z,91.80
2018-05-31T01:31:03.547Z,91.60
2018-05-31T01:33:04.545Z,91.00
2018-05-31T01:35:05.531Z,91.10
2018-05-31T01:37:06.482Z,92.40
2018-05-31T01:39:07.448Z,91.40
2018-05-31T01:41:08.424Z,91.50
2018-05-31T01:43:09.407Z,92.10
2018-05-31T01:45:10.387Z,92.50
2018-05-31T01:47:11.372Z,92.60
2018-05-31T01:49:15.098Z,94.00
2018-05-31T01:51:16.397Z,93.80
2018-05-31T01:53:18.141Z,94.20
2018-05-31T01:55:19.121Z,93.90
2018-05-31T01:57:20.065Z,96.20
2018-05-31T01:59:21.033Z,94.10
2018-05-31T02:01:21.995Z,94.70
2018-05-31T02:03:23.713Z,94.10
2018-05-31T02:05:25.970Z,94.10
2018-05-31T02:07:27.014Z,94.60
2018-05-31T02:09:27.961Z,93.80
2018-05-31T02:11:28.964Z,94.70
2018-05-31T02:13:31.544Z,95.00
2018-05-31T02:15:32.512Z,95.00
2018-05-31T02:17:34.553Z,93.50
2018-05-31T02:19:36.573Z,93.40
2018-05-31T02:21:37.543Z,93.40
2018-05-31T02:23:38.963Z,92.30
2018-05-31T02:25:39.974Z,91.20
2018-05-31T02:27:40.961Z,90.70
2018-05-31T02:29:41.945Z,91.00
2018-05-31T02:31:42.901Z,91.40
2018-05-31T02:33:43.906Z,92.50
2018-05-31T02:35:44.838Z,92.00
2018-05-31T02:37:46.557Z,92.90
2018-05-31T02:39:47.515Z,92.90
2018-05-31T02:41:48.525Z,94.60
2018-05-31T02:43:49.503Z,96.30
2018-05-31T02:45:52.151Z,96.80
2018-05-31T02:47:53.132Z,96.90
2018-05-31T02:49:54.065Z,97.80
2018-05-31T02:51:55.028Z,98.20
2018-05-31T02:53:55.960Z,98.20
2018-05-31T02:55:59.355Z,98.20
2018-05-31T02:58:01.114Z,97.60
2018-05-31T03:00:03.414Z,97.50
2018-05-31T03:02:04.418Z,97.90
2018-05-31T03:04:05.360Z,97.10
2018-05-31T03:06:07.682Z,97.30
2018-05-31T03:08:08.772Z,96.80
2018-05-31T03:10:10.477Z,96.40
2018-05-31T03:12:11.421Z,96.40
2018-05-31T03:14:12.707Z,97.40
2018-05-31T03:16:13.696Z,96.20
2018-05-31T03:18:15.049Z,96.40
2018-05-31T03:20:16.815Z,96.30
2018-05-31T03:22:17.960Z,96.30
2018-05-31T03:24:19.637Z,93.60
2018-05-31T03:26:20.653Z,93.50
2018-05-31T03:28:22.348Z,94.60
2018-05-31T03:30:23.660Z,94.50
2018-05-31T03:32:25.074Z,95.90
2018-05-31T03:34:26.569Z,95.80
2018-05-31T03:36:27.581Z,95.30
2018-05-31T03:38:28.938Z,94.90
2018-05-31T03:40:29.917Z,95.30
2018-05-31T03:42:30.873Z,95.50
2018-05-31T03:44:31.846Z,95.40
2018-05-31T03:46:32.845Z,94.70
2018-05-31T03:48:33.805Z,94.50
2018-05-31T03:50:34.765Z,94.10
2018-05-31T03:52:35.790Z,94.70
2018-05-31T03:54:36.985Z,95.00
2018-05-31T03:56:38.165Z,95.50
2018-05-31T03:58:39.309Z,95.40
2018-05-31T04:00:40.310Z,95.10
2018-05-31T04:02:42.026Z,94.80
2018-05-31T04:04:42.965Z,94.80
2018-05-31T04:06:43.896Z,94.80
2018-05-31T04:08:44.853Z,95.20
2018-05-31T04:10:47.337Z,95.30
2018-05-31T04:12:48.306Z,95.30
2018-05-31T04:14:49.249Z,95.30
2018-05-31T04:16:50.177Z,95.10
2018-05-31T04:18:51.134Z,95.90
2018-05-31T04:20:52.066Z,96.00
2018-05-31T04:22:53.063Z,96.40
2018-05-31T04:24:58.428Z,97.10
2018-05-31T04:26:59.507Z,97.10
2018-05-31T04:29:00.469Z,96.60
2018-05-31T04:31:01.438Z,96.40
2018-05-31T04:33:03.653Z,96.20
2018-05-31T04:35:04.653Z,96.40
2018-05-31T04:37:05.631Z,97.00
2018-05-31T04:39:07.328Z,97.10
2018-05-31T04:41:08.304Z,97.10
2018-05-31T04:43:09.572Z,97.60
2018-05-31T04:45:10.667Z,97.80
2018-05-31T04:47:11.654Z,98.10
2018-05-31T04:49:12.624Z,98.10
2018-05-31T04:51:13.961Z,98.30
2018-05-31T04:53:14.964Z,98.20
2018-05-31T04:55:15.929Z,98.10
2018-05-31T04:57:16.896Z,98.30
2018-05-31T04:59:17.848Z,98.30
2018-05-31T05:01:21.324Z,98.20
2018-05-31T05:03:25.233Z,99.10
2018-05-31T05:05:26.937Z,99.00
2018-05-31T05:07:30.557Z,99.10
2018-05-31T05:09:32.465Z,98.60
2018-05-31T05:11:33.409Z,98.60
2018-05-31T05:13:34.916Z,97.40
2018-05-31T05:15:35.884Z,97.70
2018-05-31T05:17:36.865Z,96.40
2018-05-31T05:19:37.833Z,96.90
2018-05-31T05:21:39.031Z,95.40
2018-05-31T05:23:40.729Z,95.60
2018-05-31T05:25:41.694Z,95.60
2018-05-31T05:27:42.829Z,95.20
2018-05-31T05:29:43.764Z,96.30
2018-05-31T05:31:44.733Z,96.10
2018-05-31T05:33:45.740Z,95.70
2018-05-31T05:35:46.711Z,96.50
2018-05-31T05:37:47.653Z,96.40
2018-05-31T05:39:48.608Z,96.20
2018-05-31T05:41:49.568Z,96.60
2018-05-31T05:43:50.517Z,96.90
2018-05-31T05:45:51.456Z,96.50
2018-05-31T05:47:52.442Z,96.30
2018-05-31T05:49:53.385Z,95.30
2018-05-31T05:51:54.338Z,94.80
2018-05-31T05:53:56.068Z,95.50
2018-05-31T05:55:57.026Z,95.50
2018-05-31T05:57:57.993Z,95.40
2018-05-31T05:59:59.685Z,95.40
2018-05-31T06:02:00.668Z,95.40
2018-05-31T06:04:01.654Z,94.40
2018-05-31T06:06:03.347Z,94.50
2018-05-31T06:08:04.337Z,94.40
2018-05-31T06:10:05.387Z,93.30
2018-05-31T06:12:06.266Z,91.60
2018-05-31T06:14:08.001Z,91.50
2018-05-31T06:16:08.961Z,91.50
2018-05-31T06:18:10.678Z,91.60
2018-05-31T06:20:11.652Z,91.70
2018-05-31T06:22:15.830Z,88.20
2018-05-31T06:24:16.794Z,89.80
2018-05-31T06:26:17.750Z,88.80
2018-05-31T06:28:18.725Z,87.70
2018-05-31T06:30:19.658Z,84.70
2018-05-31T06:32:20.608Z,86.20
2018-05-31T06:34:21.577Z,86.80
2018-05-31T06:36:23.425Z,81.10
2018-05-31T06:38:24.396Z,81.10
2018-05-31T06:40:26.097Z,77.90
2018-05-31T06:42:27.110Z,78.00
2018-05-31T06:44:28.110Z,78.50
2018-05-31T06:46:29.135Z,77.50
2018-05-31T06:48:30.118Z,71.80
2018-05-31T06:50:31.064Z,72.40
2018-05-31T06:52:32.045Z,68.90
2018-05-31T06:54:33.737Z,67.60
2018-05-31T06:56:34.677Z,67.70
2018-05-31T06:58:35.631Z,68.00
2018-05-31T07:00:36.645Z,63.90
2018-05-31T07:02:37.641Z,64.10
2018-05-31T07:04:38.623Z,61.20
2018-05-31T07:06:40.310Z,55.60
2018-05-31T07:08:41.332Z,55.50
2018-05-31T07:10:42.377Z,57.60
2018-05-31T07:12:44.073Z,65.00
2018-05-31T07:14:45.025Z,64.80
2018-05-31T07:16:45.971Z,56.00
2018-05-31T07:18:46.935Z,57.40
2018-05-31T07:20:47.919Z,56.80
2018-05-31T07:22:48.901Z,54.20
2018-05-31T07:24:50.598Z,59.60
2018-05-31T07:26:51.588Z,59.00
2018-05-31T07:28:53.275Z,57.70
2018-05-31T07:30:54.222Z,57.80
2018-05-31T07:32:55.182Z,55.80
2018-05-31T07:34:56.883Z,54.20
2018-05-31T07:36:57.882Z,53.80
2018-05-31T07:38:58.837Z,52.90
2018-05-31T07:40:59.791Z,52.10
2018-05-31T07:43:00.739Z,47.70
2018-05-31T07:45:01.731Z,49.60
2018-05-31T07:47:03.424Z,51.50
2018-05-31T07:49:04.417Z,51.60
2018-05-31T07:51:05.358Z,53.10
2018-05-31T07:53:06.343Z,49.40
2018-05-31T07:55:08.041Z,42.30
2018-05-31T07:57:09.745Z,46.90
2018-05-31T07:59:10.781Z,46.80
2018-05-31T08:01:11.743Z,44.60
2018-05-31T08:03:12.886Z,39.90
2018-05-31T08:05:13.831Z,42.20
2018-05-31T08:07:14.768Z,40.90
2018-05-31T08:09:15.793Z,44.40
2018-05-31T08:11:16.773Z,38.90
2018-05-31T08:13:17.759Z,38.30
2018-05-31T08:15:18.734Z,41.10
2018-05-31T08:17:19.717Z,40.80
2018-05-31T08:19:20.693Z,38.20
2018-05-31T08:21:21.635Z,40.20
2018-05-31T08:23:23.325Z,41.00
2018-05-31T08:25:24.279Z,40.80
2018-05-31T08:27:25.265Z,35.60
2018-05-31T08:29:26.209Z,34.70
2018-05-31T08:31:27.558Z,33.70
2018-05-31T08:33:28.599Z,34.90
2018-05-31T08:35:29.537Z,34.60
2018-05-31T08:37:30.513Z,36.80
2018-05-31T08:39:31.470Z,37.60
2018-05-31T08:41:33.218Z,32.10
2018-05-31T08:43:34.648Z,32.10
2018-05-31T08:45:36.405Z,30.00
2018-05-31T08:47:37.444Z,30.40
2018-05-31T08:49:38.393Z,29.60
2018-05-31T08:51:39.378Z,33.10
2018-05-31T08:53:41.219Z,32.00
2018-05-31T08:55:42.178Z,31.30
2018-05-31T08:57:43.136Z,29.60
2018-05-31T08:59:44.971Z,32.20
2018-05-31T09:01:45.970Z,31.10
2018-05-31T09:03:46.950Z,27.30
2018-05-31T09:05:47.933Z,27.50
2018-05-31T09:07:48.929Z,31.70
2018-05-31T09:09:49.893Z,26.80
2018-05-31T09:11:50.853Z,28.60
2018-05-31T09:13:51.838Z,27.10
2018-05-31T09:15:52.828Z,26.20
2018-05-31T09:17:53.991Z,25.20
2018-05-31T09:19:55.017Z,27.30
2018-05-31T09:21:55.982Z,26.00
2018-05-31T09:23:57.002Z,25.80
2018-05-31T09:25:57.989Z,26.00
2018-05-31T09:27:58.997Z,23.30
2018-05-31T09:30:00.107Z,23.60
2018-05-31T09:32:01.136Z,25.90
2018-05-31T09:34:02.117Z,20.80
2018-05-31T09:36:03.895Z,26.20
2018-05-31T09:38:05.689Z,24.40
2018-05-31T09:40:06.660Z,24.30
2018-05-31T09:42:07.606Z,21.50
2018-05-31T09:44:08.549Z,24.10
2018-05-31T09:46:09.549Z,22.90
2018-05-31T09:48:10.550Z,22.20
2018-05-31T09:50:11.514Z,22.00
2018-05-31T09:52:12.478Z,22.00
2018-05-31T09:54:13.446Z,23.70
2018-05-31T09:56:14.464Z,20.40
2018-05-31T09:58:16.197Z,19.50
2018-05-31T10:00:17.196Z,19.60
2018-05-31T10:02:18.161Z,18.50
2018-05-31T10:04:19.182Z,18.30
2018-05-31T10:06:20.158Z,19.10
2018-05-31T10:08:21.129Z,18.70
2018-05-31T10:10:22.106Z,20.00
2018-05-31T10:12:23.098Z,16.20
2018-05-31T10:14:24.067Z,18.00
2018-05-31T10:16:25.059Z,19.60
2018-05-31T10:18:26.798Z,18.60
2018-05-31T10:20:27.778Z,18.30
2018-05-31T10:22:28.720Z,19.70
2018-05-31T10:24:29.734Z,18.50
2018-05-31T10:26:30.702Z,20.30
2018-05-31T10:28:31.666Z,19.10
2018-05-31T10:30:39.158Z,19.40
2018-05-31T10:32:40.190Z,20.20
2018-05-31T10:34:41.173Z,20.20
2018-05-31T10:36:42.166Z,17.50
2018-05-31T10:41:11.802Z,18.20
2018-05-31T10:45:35.845Z,17.20
2018-05-31T10:47:36.839Z,20.00
2018-05-31T10:49:37.817Z,18.40
2018-05-31T10:51:38.774Z,15.10
2018-05-31T10:53:39.744Z,16.70
2018-05-31T10:55:40.790Z,18.20
2018-05-31T10:57:41.760Z,15.60
2018-05-31T10:59:43.462Z,13.00
2018-05-31T11:01:44.455Z,12.50
2018-05-31T11:03:45.514Z,13.60
2018-05-31T11:05:47.237Z,14.30
2018-05-31T11:07:48.213Z,13.90
2018-05-31T11:09:49.234Z,14.50
2018-05-31T11:11:50.268Z,14.90
2018-05-31T11:13:51.230Z,14.00
2018-05-31T11:15:52.945Z,11.40
2018-05-31T11:17:53.902Z,11.50
2018-05-31T11:19:54.946Z,11.50
2018-05-31T11:21:55.932Z,11.70
2018-05-31T11:23:56.939Z,14.80
2018-05-31T11:25:57.945Z,14.00
2018-05-31T11:27:58.921Z,13.80
2018-05-31T11:29:59.885Z,12.60
2018-05-31T11:32:00.943Z,12.70
2018-05-31T11:34:01.897Z,11.80
2018-05-31T11:36:02.885Z,9.30
2018-05-31T11:38:03.883Z,12.50
2018-05-31T11:40:04.840Z,12.30
2018-05-31T11:42:05.794Z,11.80
2018-05-31T11:44:07.702Z,11.40
2018-05-31T11:46:08.682Z,10.80
2018-05-31T11:48:09.941Z,11.20
2018-05-31T11:50:11.755Z,15.30
2018-05-31T11:52:12.741Z,15.00
2018-05-31T11:54:13.853Z,11.70
2018-05-31T11:56:14.970Z,11.60
2018-05-31T11:58:16.726Z,11.10
2018-05-31T12:00:17.705Z,11.00
2018-05-31T12:02:18.757Z,10.20
2018-05-31T12:04:19.792Z,11.30
2018-05-31T12:06:20.763Z,9.30
2018-05-31T12:08:21.755Z,10.40
2018-05-31T12:10:22.721Z,9.00
2018-05-31T12:12:23.799Z,11.00
2018-05-31T12:14:25.217Z,9.00
2018-05-31T12:16:26.198Z,12.10
2018-05-31T12:18:28.443Z,12.40
2018-05-31T12:20:29.446Z,12.60
2018-05-31T12:22:30.441Z,10.70
2018-05-31T12:24:32.932Z,11.70
2018-05-31T12:26:34.014Z,11.60
2018-05-31T12:28:34.988Z,11.70
2018-05-31T12:30:35.987Z,11.60
2018-05-31T12:32:36.971Z,11.50
2018-05-31T12:34:37.934Z,11.50
2018-05-31T12:36:39.034Z,15.10
2018-05-31T12:38:40.045Z,12.00
2018-05-31T12:40:41.013Z,10.60
2018-05-31T12:42:41.998Z,10.70
2018-05-31T12:44:42.966Z,12.40
2018-05-31T12:46:44.054Z,11.70
2018-05-31T12:48:45.792Z,11.30
2018-05-31T12:50:46.777Z,11.30
2018-05-31T12:52:47.772Z,10.50
2018-05-31T12:54:48.717Z,10.60
2018-05-31T12:56:49.736Z,10.50
2018-05-31T12:58:50.725Z,10.70
2018-05-31T13:00:51.665Z,10.50
2018-05-31T13:02:52.642Z,12.00
2018-05-31T13:04:54.427Z,13.60
2018-05-31T13:06:55.387Z,12.90
2018-05-31T13:08:56.497Z,11.40
2018-05-31T13:10:58.304Z,14.10
2018-05-31T13:13:00.009Z,9.20
2018-05-31T13:15:01.036Z,9.00
2018-05-31T13:17:02.990Z,12.10
2018-05-31T13:19:03.986Z,10.40
2018-05-31T13:21:05.714Z,12.90
2018-05-31T13:23:06.652Z,12.70
2018-05-31T13:25:07.622Z,12.80
2018-05-31T13:27:08.632Z,15.30
2018-05-31T13:29:09.582Z,13.80
2018-05-31T13:31:10.650Z,11.60
2018-05-31T13:33:11.622Z,12.70
2018-05-31T13:35:12.602Z,10.10
2018-05-31T13:37:13.722Z,10.50
2018-05-31T13:39:15.433Z,13.50
2018-05-31T13:41:16.556Z,13.10
2018-05-31T13:43:17.609Z,13.00
2018-05-31T13:45:18.618Z,10.70
2018-05-31T13:47:19.642Z,11.40
2018-05-31T13:49:20.785Z,12.30
2018-05-31T13:51:21.802Z,13.80
2018-05-31T13:53:22.918Z,13.90
2018-05-31T13:55:23.889Z,15.20
2018-05-31T13:57:24.841Z,14.80
2018-05-31T13:59:25.798Z,12.60
2018-05-31T14:01:26.745Z,13.70
2018-05-31T14:03:27.760Z,14.60
2018-05-31T14:05:28.702Z,13.50
2018-05-31T14:07:30.402Z,15.70
2018-05-31T14:09:31.403Z,15.50
2018-05-31T14:11:32.349Z,17.10
2018-05-31T14:13:33.351Z,17.20
2018-05-31T14:15:34.380Z,19.10
2018-05-31T14:17:36.109Z,16.30
2018-05-31T14:19:37.852Z,15.80
2018-05-31T14:21:40.121Z,16.00
2018-05-31T14:23:41.116Z,18.80
2018-05-31T14:25:42.126Z,17.10
2018-05-31T14:27:43.129Z,13.70
2018-05-31T14:29:44.181Z,16.80
2018-05-31T14:31:45.173Z,14.60
2018-05-31T14:33:46.236Z,15.40
2018-05-31T14:35:47.247Z,15.60
2018-05-31T14:37:48.317Z,14.90
2018-05-31T14:39:49.338Z,16.80
2018-05-31T14:41:50.357Z,18.90
2018-05-31T14:44:06.772Z,16.50
2018-05-31T14:46:07.801Z,17.70
2018-05-31T14:48:09.578Z,18.70
2018-05-31T14:50:10.546Z,18.70
2018-05-31T14:52:12.302Z,18.70
2018-05-31T14:54:13.298Z,18.70
2018-05-31T14:56:14.246Z,19.10
2018-05-31T14:58:15.269Z,20.60
2018-05-31T15:00:16.223Z,19.80
2018-05-31T15:02:17.193Z,22.50
2018-05-31T15:04:18.237Z,22.60
2018-05-31T15:06:19.279Z,21.30
2018-05-31T15:08:20.270Z,22.30
2018-05-31T15:10:21.252Z,22.80
2018-05-31T15:12:22.209Z,22.40
2018-05-31T15:14:23.153Z,24.40
2018-05-31T15:16:24.108Z,23.50
2018-05-31T15:18:25.148Z,22.80
2018-05-31T15:20:26.158Z,23.40
2018-05-31T15:22:27.122Z,21.20
2018-05-31T15:24:28.076Z,23.40
2018-05-31T15:26:29.051Z,22.20
2018-05-31T15:28:29.998Z,22.50
2018-05-31T15:30:30.940Z,23.90
2018-05-31T15:32:31.942Z,22.20
2018-05-31T15:34:32.921Z,22.00
2018-05-31T15:36:34.387Z,22.70
2018-05-31T15:38:35.406Z,23.00
2018-05-31T15:40:36.377Z,23.00
2018-05-31T15:42:37.557Z,24.10
2018-05-31T15:44:39.373Z,23.20
2018-05-31T15:46:40.339Z,23.00
2018-05-31T15:48:41.346Z,24.30
2018-05-31T15:50:43.038Z,24.10
2018-05-31T15:52:44.005Z,24.20
2018-05-31T15:54:44.964Z,23.40
2018-05-31T15:56:46.656Z,25.90
2018-05-31T15:58:47.600Z,26.00
2018-05-31T16:00:48.549Z,24.00
2018-05-31T16:02:49.517Z,20.60
2018-05-31T16:04:50.469Z,23.50
2018-05-31T16:06:51.403Z,22.00
2018-05-31T16:08:52.359Z,24.10
2018-05-31T16:10:53.312Z,23.20
2018-05-31T16:12:54.247Z,23.20
2018-05-31T16:14:55.160Z,23.30
2018-05-31T16:16:56.126Z,26.10
2018-05-31T16:18:57.063Z,21.40
2018-05-31T16:20:58.081Z,24.60
2018-05-31T16:22:59.777Z,20.90
2018-05-31T16:25:00.714Z,20.60
2018-05-31T16:27:01.686Z,24.00
2018-05-31T16:29:02.630Z,21.70
2018-05-31T16:31:03.613Z,21.90
2018-05-31T16:33:04.536Z,21.60
2018-05-31T16:35:05.524Z,23.40
2018-05-31T16:37:07.207Z,21.70
2018-05-31T16:39:08.135Z,21.70
2018-05-31T16:41:09.101Z,20.70
2018-05-31T16:43:10.040Z,23.60
2018-05-31T16:45:11.014Z,22.40
2018-05-31T16:47:11.964Z,23.20
2018-05-31T16:49:12.905Z,22.50
2018-05-31T16:51:13.829Z,24.40
2018-05-31T16:53:14.764Z,24.80
2018-05-31T16:55:15.694Z,23.10
2018-05-31T16:57:17.382Z,25.90
2018-05-31T16:59:18.344Z,25.80
2018-05-31T17:01:19.252Z,20.30
2018-05-31T17:03:20.990Z,22.70
2018-05-31T17:05:21.953Z,22.20
2018-05-31T17:07:23.645Z,21.30
2018-05-31T17:09:24.589Z,21.20
2018-05-31T17:11:25.569Z,23.10
2018-05-31T17:13:26.488Z,22.40
2018-05-31T17:15:27.428Z,24.30
2018-05-31T17:17:28.369Z,27.20
2018-05-31T17:19:29.304Z,28.10
2018-05-31T17:21:30.249Z,28.60
2018-05-31T17:23:31.192Z,26.00
2018-05-31T17:25:32.872Z,27.50
2018-05-31T17:27:35.793Z,27.50
2018-05-31T17:29:36.724Z,29.40
2018-05-31T17:31:37.653Z,27.00
2018-05-31T17:33:38.589Z,29.30
2018-05-31T17:35:40.284Z,33.40
2018-05-31T17:37:41.213Z,33.40
2018-05-31T17:39:42.153Z,33.60
2018-05-31T17:41:43.133Z,32.40
2018-05-31T17:43:44.369Z,33.90
2018-05-31T17:45:45.377Z,34.30
2018-05-31T17:47:47.085Z,35.20
2018-05-31T17:49:48.025Z,35.20
2018-05-31T17:51:49.028Z,34.20
2018-05-31T17:53:50.704Z,36.70
2018-05-31T17:55:52.387Z,35.20
2018-05-31T17:57:53.372Z,35.10
2018-05-31T17:59:54.300Z,39.40
2018-05-31T18:01:55.225Z,42.00
2018-05-31T18:03:56.176Z,43.30
2018-05-31T18:05:57.147Z,44.50
2018-05-31T18:07:58.099Z,44.40
2018-05-31T18:09:59.040Z,43.20
2018-05-31T18:11:59.988Z,44.40
2018-05-31T18:14:00.946Z,44.40
2018-05-31T18:16:01.857Z,44.30
2018-05-31T18:18:02.805Z,43.20
2018-05-31T18:20:03.753Z,45.60
2018-05-31T18:22:04.707Z,44.20
2018-05-31T18:24:05.654Z,49.50
2018-05-31T18:26:06.629Z,52.80
2018-05-31T18:28:07.556Z,53.40
2018-05-31T18:30:08.529Z,54.00
2018-05-31T18:32:09.549Z,53.40
2018-05-31T18:34:10.541Z,51.50
2018-05-31T18:36:11.492Z,46.70
2018-05-31T18:38:12.474Z,50.00
2018-05-31T18:40:13.431Z,52.30
2018-05-31T18:42:14.431Z,53.00
2018-05-31T18:44:15.611Z,58.60
2018-05-31T18:46:16.593Z,58.50
2018-05-31T18:48:20.862Z,58.40
2018-05-31T18:50:21.820Z,58.60
2018-05-31T18:52:22.752Z,57.70
2018-05-31T18:54:23.710Z,55.60
2018-05-31T18:56:24.721Z,56.20
2018-05-31T18:58:26.421Z,52.80
2018-05-31T19:00:27.550Z,52.70
2018-05-31T19:02:28.557Z,58.70
2018-05-31T19:04:29.538Z,58.10
2018-05-31T19:06:31.262Z,54.50
2018-05-31T19:08:32.443Z,54.70
2018-05-31T19:10:34.377Z,55.20
2018-05-31T19:12:41.347Z,52.40
2018-05-31T19:14:42.342Z,55.30
2018-05-31T19:16:44.012Z,58.80
2018-05-31T19:18:52.065Z,59.30
2018-05-31T19:20:53.614Z,59.20
2018-05-31T19:22:54.572Z,57.10
2018-05-31T19:25:01.667Z,55.20
2018-05-31T19:27:03.021Z,58.50
2018-05-31T19:29:04.075Z,61.60
2018-05-31T19:31:09.871Z,64.10
2018-05-31T19:33:10.825Z,65.90
2018-05-31T19:35:17.962Z,64.40
2018-05-31T19:37:19.032Z,67.70
2018-05-31T19:39:19.979Z,64.50
2018-05-31T19:41:20.969Z,65.50
2018-05-31T19:43:28.977Z,67.50
2018-05-31T19:45:30.666Z,70.90
2018-05-31T19:47:31.855Z,70.90
2018-05-31T19:49:32.850Z,73.80
2018-05-31T19:51:39.988Z,76.10
2018-05-31T19:53:42.951Z,76.90
2018-05-31T19:55:44.018Z,77.00
2018-05-31T19:57:51.009Z,76.90
2018-05-31T19:59:57.988Z,76.80
2018-05-31T20:02:06.135Z,77.60
2018-05-31T20:04:08.363Z,77.60
2018-05-31T20:06:09.343Z,78.50
2018-05-31T20:08:10.499Z,80.50
2018-05-31T20:10:12.618Z,79.50
2018-05-31T20:12:21.256Z,77.90
2018-05-31T20:14:19.170Z,80.20
2018-05-31T20:16:20.155Z,80.10
2018-05-31T20:18:21.918Z,80.90
2018-05-31T20:20:22.936Z,80.90
2018-05-31T20:22:23.921Z,79.80
2018-05-31T20:24:25.007Z,79.10
2018-05-31T20:26:25.961Z,78.80
2018-05-31T20:28:26.872Z,79.40
2018-05-31T20:30:27.919Z,78.90
2018-05-31T20:32:28.932Z,79.00
2018-05-31T20:34:29.837Z,80.40
2018-05-31T20:36:30.813Z,83.50
2018-05-31T20:38:31.761Z,85.00
2018-05-31T20:40:32.809Z,83.00
2018-05-31T20:42:33.769Z,81.30
2018-05-31T20:44:34.756Z,80.50
2018-05-31T20:46:35.717Z,80.60
2018-05-31T20:48:36.673Z,81.10
2018-05-31T20:50:37.722Z,82.20
2018-05-31T20:52:38.819Z,82.00
2018-05-31T20:54:39.874Z,80.90
2018-05-31T20:56:40.814Z,81.30
2018-05-31T20:58:41.780Z,79.40
2018-05-31T21:00:42.721Z,81.00
2018-05-31T21:02:43.757Z,82.90
2018-05-31T21:04:44.784Z,83.90
2018-05-31T21:06:45.987Z,84.20
2018-05-31T21:08:46.943Z,85.30
2018-05-31T21:10:47.958Z,85.40
2018-05-31T21:12:48.965Z,86.40
2018-05-31T21:14:49.938Z,87.30
2018-05-31T21:16:50.891Z,86.50
2018-05-31T21:18:52.919Z,86.60
2018-05-31T21:20:53.915Z,87.50
2018-05-31T21:22:54.920Z,87.40
2018-05-31T21:24:55.824Z,87.90
2018-05-31T21:26:56.839Z,88.60
2018-05-31T21:28:58.565Z,86.50
2018-05-31T21:30:59.550Z,86.40
2018-05-31T21:33:00.670Z,85.20
2018-05-31T21:35:02.469Z,86.10
2018-05-31T21:37:03.421Z,85.90
2018-05-31T21:39:04.420Z,86.20
2018-05-31T21:41:06.178Z,85.80
2018-05-31T21:43:07.114Z,85.00
2018-05-31T21:45:08.062Z,85.10
2018-05-31T21:47:09.168Z,85.30
2018-05-31T21:49:10.116Z,88.30
2018-05-31T21:51:11.783Z,87.40
2018-05-31T21:53:12.844Z,87.40
2018-05-31T21:55:13.761Z,87.60
2018-05-31T21:57:15.427Z,87.70
2018-05-31T21:59:17.114Z,89.70
2018-05-31T22:01:18.088Z,89.70
2018-05-31T22:03:19.033Z,90.70
2018-05-31T22:05:19.968Z,91.10
2018-05-31T22:07:20.953Z,90.50
2018-05-31T22:09:21.911Z,89.80
2018-05-31T22:11:23.592Z,90.10
2018-05-31T22:13:24.536Z,90.00
2018-05-31T22:15:25.480Z,90.70
2018-05-31T22:17:26.421Z,91.00
2018-05-31T22:19:28.130Z,90.30
2018-05-31T22:21:29.061Z,90.30
2018-05-31T22:23:30.000Z,87.80
2018-05-31T22:25:30.940Z,89.70
2018-05-31T22:27:31.869Z,91.40
2018-05-31T22:29:32.816Z,90.70
2018-05-31T22:31:33.862Z,91.30
2018-05-31T22:33:35.619Z,92.40
2018-05-31T22:35:37.292Z,91.90
2018-05-31T22:37:38.234Z,91.90
2018-05-31T22:39:39.922Z,90.70
2018-05-31T22:41:41.612Z,90.00
2018-05-31T22:43:42.557Z,90.00
2018-05-31T22:45:44.960Z,88.30
2018-05-31T22:47:45.930Z,95.40
2018-05-31T22:49:47.633Z,95.10
2018-05-31T22:51:48.604Z,95.10
2018-05-31T22:53:49.593Z,95.20
2018-05-31T22:55:50.534Z,94.60
2018-05-31T22:57:51.489Z,94.50
2018-05-31T22:59:52.445Z,94.30
2018-05-31T23:01:53.422Z,94.00
2018-05-31T23:03:54.401Z,94.10
2018-05-31T23:05:55.338Z,93.80
2018-05-31T23:07:56.289Z,94.00
2018-05-31T23:09:57.269Z,94.30
2018-05-31T23:11:58.216Z,93.80
2018-05-31T23:13:59.162Z,93.80
2018-05-31T23:16:00.105Z,93.80
2018-05-31T23:18:01.069Z,93.60
2018-05-31T23:20:02.033Z,93.10
2018-05-31T23:22:03.000Z,93.30
2018-05-31T23:24:03.949Z,93.40
2018-05-31T23:26:04.929Z,92.60
2018-05-31T23:28:05.864Z,92.90
2018-05-31T23:30:07.573Z,92.50
2018-05-31T23:32:08.507Z,92.40
2018-05-31T23:34:09.435Z,92.70
2018-05-31T23:36:10.382Z,92.40
2018-05-31T23:38:11.357Z,93.00
2018-05-31T23:40:12.281Z,92.40
2018-05-31T23:42:13.253Z,92.90
2018-05-31T23:44:14.211Z,92.60
2018-05-31T23:46:15.151Z,93.10
2018-05-31T23:48:16.110Z,93.70
2018-05-31T23:50:17.094Z,92.70
2018-05-31T23:52:18.061Z,92.90
2018-05-31T23:54:19.018Z,92.70
2018-05-31T23:56:19.988Z,92.10
2018-05-31T23:58:20.945Z,92.20
